TimeAST,TemperatureF,Dew PointF,Humidity,Sea Level PressureIn,VisibilityMPH,Wind Direction,Wind SpeedMPH,Gust SpeedMPH,PrecipitationIn,Events,Conditions,WindDirDegrees,DateUTC
12:00 AM,80.6,73.4,79,30.01,6.2,East,11.5,-,N/A,,Scattered Clouds,100,2012-11-28 04:00:00
1:00 AM,80.6,73.4,79,29.98,6.2,East,9.2,-,N/A,,Scattered Clouds,100,2012-11-28 05:00:00
2:00 AM,80,72,72,29.98,6,East,13.8,,,Rain,Light Rain Showers,90,2012-11-28 06:00:00
2:00 AM,80.6,73.4,79,29.98,6.2,East,13.8,-,N/A,Rain,Light Rain Showers,90,2012-11-28 06:00:00
3:00 AM,80.6,73.4,79,29.95,6.2,East,11.5,-,N/A,,Scattered Clouds,80,2012-11-28 07:00:00
4:00 AM,80.6,73.4,79,29.95,6.2,East,9.2,-,N/A,,Partly Cloudy,90,2012-11-28 08:00:00
6:00 AM,80.6,73.4,79,29.95,6.2,ESE,9.2,-,N/A,Rain,Light Rain Showers,110,2012-11-28 10:00:00
7:00 AM,80.6,71.6,74,29.98,6.2,ESE,9.2,-,N/A,,Scattered Clouds,120,2012-11-28 11:00:00
8:00 AM,80,72,72,29.98,34,SE,8.1,,,,Partly Cloudy,130,2012-11-28 12:00:00
8:00 AM,80.6,73.4,79,29.98,6.2,SE,8.1,-,N/A,,Partly Cloudy,130,2012-11-28 12:00:00
9:00 AM,86.0,71.6,62,30.01,6.2,ESE,12.7,-,N/A,,Partly Cloudy,110,2012-11-28 13:00:00
10:00 AM,86.0,73.4,66,30.04,6.2,ESE,12.7,-,N/A,,Scattered Clouds,120,2012-11-28 14:00:00
11:00 AM,86,75,62,30.03,28,ESE,8.1,,,,Partly Cloudy,110,2012-11-28 15:00:00
11:00 AM,86.0,75.2,70,30.01,6.2,ESE,8.1,-,N/A,,Scattered Clouds,110,2012-11-28 15:00:00
12:00 PM,86.0,75.2,70,30.01,6.2,ESE,9.2,-,N/A,,Partly Cloudy,110,2012-11-28 16:00:00
1:00 PM,86.0,73.4,66,29.98,6.2,East,10.4,-,N/A,,Scattered Clouds,100,2012-11-28 17:00:00
2:00 PM,84,75,68,29.96,34,SE,5.8,,,,Partly Cloudy,130,2012-11-28 18:00:00
2:00 PM,84.2,75.2,74,29.95,6.2,SE,5.8,-,N/A,,Scattered Clouds,130,2012-11-28 18:00:00
3:00 PM,84.2,71.6,66,29.92,6.2,East,11.5,-,N/A,,Scattered Clouds,90,2012-11-28 19:00:00
4:00 PM,84.2,71.6,66,29.92,6.2,East,12.7,-,N/A,,Scattered Clouds,80,2012-11-28 20:00:00
5:00 PM,83,73,64,29.93,25,East,10.4,,,,,80,2012-11-28 21:00:00
5:00 PM,84.2,73.4,70,29.92,6.2,East,10.4,-,N/A,,Scattered Clouds,80,2012-11-28 21:00:00
6:00 PM,82.4,71.6,70,29.92,6.2,East,9.2,-,N/A,,Partly Cloudy,80,2012-11-28 22:00:00
7:00 PM,80.6,73.4,79,29.95,6.2,ENE,9.2,-,N/A,,Partly Cloudy,70,2012-11-28 23:00:00
8:00 PM,79,74,79,29.97,25,East,6.9,,,Rain,Light Rain Showers,90,2012-11-29 00:00:00
8:00 PM,78.8,73.4,83,29.95,6.2,East,6.9,-,N/A,,Scattered Clouds,90,2012-11-29 00:00:00
9:00 PM,80.6,73.4,79,29.98,6.2,East,8.1,-,N/A,,Partly Cloudy,80,2012-11-29 01:00:00
10:00 PM,80.6,73.4,79,29.98,6.2,East,10.4,-,N/A,,Partly Cloudy,80,2012-11-29 02:00:00
11:00 PM,80,73,73,29.98,25,East,11.5,,,,Scattered Clouds,80,2012-11-29 03:00:00
11:00 PM,80.6,73.4,79,29.98,6.2,East,9.2,-,N/A,,Partly Cloudy,80,2012-11-29 03:00:00